createdAt,value
2016-10-19T00:00:18.857Z,1004.50
2016-10-19T00:00:40.577Z,1004.34
2016-10-19T00:01:02.296Z,1004.50
2016-10-19T00:01:24.016Z,1004.71
2016-10-19T00:01:45.753Z,1004.58
2016-10-19T00:02:07.489Z,1004.48
2016-10-19T00:02:29.224Z,1004.33
2016-10-19T00:02:50.944Z,1004.51
2016-10-19T00:03:12.666Z,1004.54
2016-10-19T00:03:34.394Z,1004.52
2016-10-19T00:03:56.112Z,1004.50
2016-10-19T00:04:17.836Z,1004.62
2016-10-19T00:04:39.569Z,1004.46
2016-10-19T00:05:01.290Z,1004.47
2016-10-19T00:05:23.017Z,1004.44
2016-10-19T00:05:44.737Z,1004.37
2016-10-19T00:06:06.460Z,1004.56
2016-10-19T00:06:28.178Z,1004.45
2016-10-19T00:06:49.905Z,1004.48
2016-10-19T00:07:11.632Z,1004.41
2016-10-19T00:07:33.349Z,1004.54
2016-10-19T00:07:55.071Z,1004.48
2016-10-19T00:08:16.794Z,1004.46
2016-10-19T00:08:38.514Z,1004.51
2016-10-19T00:09:00.235Z,1004.32
2016-10-19T00:09:21.963Z,1004.44
2016-10-19T00:09:43.691Z,1004.42
2016-10-19T00:10:05.406Z,1004.44
2016-10-19T00:10:27.131Z,1004.42
2016-10-19T00:10:48.837Z,1004.37
2016-10-19T00:11:10.558Z,1004.35
2016-10-19T00:11:32.276Z,1004.38
2016-10-19T00:11:54.004Z,1004.46
2016-10-19T00:12:15.724Z,1004.35
2016-10-19T00:12:37.445Z,1004.45
2016-10-19T00:12:59.164Z,1004.53
2016-10-19T00:13:20.876Z,1004.45
2016-10-19T00:13:42.598Z,1004.50
2016-10-19T00:14:04.310Z,1004.53
2016-10-19T00:14:26.027Z,1004.54
2016-10-19T00:14:47.748Z,1004.52
2016-10-19T00:15:09.465Z,1004.48
2016-10-19T00:15:31.190Z,1004.44
2016-10-19T00:15:52.926Z,1004.32
2016-10-19T00:16:14.642Z,1004.46
2016-10-19T00:16:36.365Z,1004.53
2016-10-19T00:16:58.086Z,1004.47
2016-10-19T00:17:19.801Z,1004.56
2016-10-19T00:17:41.525Z,1004.56
2016-10-19T00:18:03.257Z,1004.37
2016-10-19T00:18:24.974Z,1004.43
2016-10-19T00:18:46.696Z,1004.49
2016-10-19T00:19:08.410Z,1004.40
2016-10-19T00:19:30.125Z,1004.45
2016-10-19T00:19:51.841Z,1004.37
2016-10-19T00:20:13.558Z,1004.39
2016-10-19T00:20:35.276Z,1004.49
2016-10-19T00:20:56.996Z,1004.48
2016-10-19T00:21:18.719Z,1004.51
2016-10-19T00:21:40.439Z,1004.43
2016-10-19T00:22:02.154Z,1004.33
2016-10-19T00:22:23.872Z,1004.32
2016-10-19T00:22:45.592Z,1004.40
2016-10-19T00:23:07.309Z,1004.34
2016-10-19T00:23:29.030Z,1004.37
2016-10-19T00:23:50.758Z,1004.39
2016-10-19T00:24:12.478Z,1004.40
2016-10-19T00:24:34.194Z,1004.37
2016-10-19T00:24:55.914Z,1004.27
2016-10-19T00:25:17.631Z,1004.44
2016-10-19T00:25:39.360Z,1004.41
2016-10-19T00:26:01.082Z,1004.40
2016-10-19T00:26:22.796Z,1004.45
2016-10-19T00:26:44.506Z,1004.36
2016-10-19T00:27:06.231Z,1004.47
2016-10-19T00:27:27.953Z,1004.32
2016-10-19T00:27:49.673Z,1004.33
2016-10-19T00:28:11.412Z,1004.31
2016-10-19T00:28:33.132Z,1004.42
2016-10-19T00:28:54.847Z,1004.35
2016-10-19T00:29:16.565Z,1004.23
2016-10-19T00:29:38.286Z,1004.33
2016-10-19T00:30:00.002Z,1004.46
2016-10-19T00:30:21.737Z,1004.37
2016-10-19T00:30:43.451Z,1004.38
2016-10-19T00:31:05.180Z,1004.34
2016-10-19T00:31:26.904Z,1004.46
2016-10-19T00:31:48.640Z,1004.30
2016-10-19T00:32:10.357Z,1004.29
2016-10-19T00:32:32.081Z,1004.22
2016-10-19T00:32:53.803Z,1004.44
2016-10-19T00:33:15.522Z,1004.44
2016-10-19T00:33:37.244Z,1004.19
2016-10-19T00:33:58.960Z,1004.40
2016-10-19T00:34:20.677Z,1004.28
2016-10-19T00:34:42.422Z,1004.37
2016-10-19T00:35:04.137Z,1004.37
2016-10-19T00:35:25.858Z,1004.36
2016-10-19T00:35:52.352Z,1004.26
2016-10-19T00:36:14.065Z,1004.41
2016-10-19T00:36:35.777Z,1004.49
2016-10-19T00:36:57.497Z,1004.32
2016-10-19T00:37:19.218Z,1004.37
2016-10-19T00:37:40.942Z,1004.35
2016-10-19T00:38:02.654Z,1004.35
2016-10-19T00:38:24.372Z,1004.36
2016-10-19T00:38:46.094Z,1004.33
2016-10-19T00:39:07.816Z,1004.42
2016-10-19T00:39:29.531Z,1004.40
2016-10-19T00:39:51.254Z,1004.38
2016-10-19T00:40:12.977Z,1004.35
2016-10-19T00:40:34.696Z,1004.38
2016-10-19T00:40:56.413Z,1004.45
2016-10-19T00:41:18.126Z,1004.39
2016-10-19T00:41:39.847Z,1004.39
2016-10-19T00:42:01.679Z,1004.21
2016-10-19T00:42:23.397Z,1004.38
2016-10-19T00:42:45.132Z,1004.24
2016-10-19T00:43:06.851Z,1004.27
2016-10-19T00:43:28.571Z,1004.33
2016-10-19T00:43:50.286Z,1004.50
2016-10-19T00:44:12.032Z,1004.36
2016-10-19T00:44:33.759Z,1004.35
2016-10-19T00:44:55.480Z,1004.14
2016-10-19T00:45:17.201Z,1004.38
2016-10-19T00:45:38.924Z,1004.37
2016-10-19T00:46:00.647Z,1004.29
2016-10-19T00:46:22.466Z,1004.52
2016-10-19T00:46:44.180Z,1004.44
2016-10-19T00:47:05.906Z,1004.39
2016-10-19T00:47:27.618Z,1004.37
2016-10-19T00:47:49.339Z,1004.32
2016-10-19T00:48:11.064Z,1004.38
2016-10-19T00:48:32.785Z,1004.45
2016-10-19T00:48:54.507Z,1004.37
2016-10-19T00:49:16.223Z,1004.47
2016-10-19T00:49:37.943Z,1004.44
2016-10-19T00:49:59.656Z,1004.31
2016-10-19T00:50:21.376Z,1004.29
2016-10-19T00:50:43.093Z,1004.22
2016-10-19T00:51:04.814Z,1004.49
2016-10-19T00:51:26.533Z,1004.36
2016-10-19T00:51:48.259Z,1004.31
2016-10-19T00:52:09.982Z,1004.40
2016-10-19T00:52:31.703Z,1004.46
2016-10-19T00:52:53.424Z,1004.36
2016-10-19T00:53:15.141Z,1004.49
2016-10-19T00:53:36.861Z,1004.26
2016-10-19T00:53:58.580Z,1004.30
2016-10-19T00:54:20.310Z,1004.43
2016-10-19T00:54:42.029Z,1004.25
2016-10-19T00:55:03.752Z,1004.26
2016-10-19T00:55:25.494Z,1004.41
2016-10-19T00:55:47.223Z,1004.35
2016-10-19T00:56:08.937Z,1004.25
2016-10-19T00:56:30.665Z,1004.25
2016-10-19T00:56:52.384Z,1004.35
2016-10-19T00:57:14.101Z,1004.40
2016-10-19T00:57:35.819Z,1004.34
2016-10-19T00:57:57.536Z,1004.26
2016-10-19T00:58:19.256Z,1004.39
2016-10-19T00:58:40.974Z,1004.28
2016-10-19T00:59:02.690Z,1004.30
2016-10-19T00:59:24.409Z,1004.39
2016-10-19T00:59:46.148Z,1004.38
2016-10-19T01:00:07.878Z,1004.24
2016-10-19T01:00:29.599Z,1004.24
2016-10-19T01:00:51.321Z,1004.26
2016-10-19T01:01:13.039Z,1004.38
2016-10-19T01:01:34.758Z,1004.34
2016-10-19T01:01:56.474Z,1004.28
2016-10-19T01:02:18.189Z,1004.35
2016-10-19T01:02:39.915Z,1004.42
2016-10-19T01:03:01.630Z,1004.32
2016-10-19T01:03:23.353Z,1004.25
2016-10-19T01:03:45.072Z,1004.19
2016-10-19T01:04:06.785Z,1004.23
2016-10-19T01:04:28.508Z,1004.19
2016-10-19T01:04:50.227Z,1004.29
2016-10-19T01:05:11.956Z,1004.22
2016-10-19T01:05:33.677Z,1004.20
2016-10-19T01:05:55.396Z,1004.32
2016-10-19T01:06:17.117Z,1004.26
2016-10-19T01:06:38.837Z,1004.27
2016-10-19T01:07:00.556Z,1004.18
2016-10-19T01:07:22.275Z,1004.18
2016-10-19T01:07:43.994Z,1004.16
2016-10-19T01:08:05.714Z,1004.14
2016-10-19T01:08:27.430Z,1004.24
2016-10-19T01:08:49.150Z,1004.20
2016-10-19T01:09:10.875Z,1004.09
2016-10-19T01:09:32.597Z,1004.03
2016-10-19T01:09:54.307Z,1004.12
2016-10-19T01:10:16.032Z,1004.09
2016-10-19T01:10:37.756Z,1004.31
2016-10-19T01:10:59.482Z,1004.08
2016-10-19T01:11:21.259Z,1004.04
2016-10-19T01:11:42.977Z,1004.20
2016-10-19T01:12:04.696Z,1004.24
2016-10-19T01:12:26.412Z,1004.15
2016-10-19T01:12:48.129Z,1003.95
2016-10-19T01:13:09.843Z,1004.06
2016-10-19T01:13:31.574Z,1004.15
2016-10-19T01:13:53.293Z,1004.16
2016-10-19T01:14:15.009Z,1004.10
2016-10-19T01:14:36.738Z,1004.10
2016-10-19T01:14:58.463Z,1004.17
2016-10-19T01:15:20.179Z,1004.18
2016-10-19T01:15:41.914Z,1003.97
2016-10-19T01:16:03.640Z,1004.03
2016-10-19T01:16:25.361Z,1004.24
2016-10-19T01:16:47.075Z,1004.15
2016-10-19T01:17:08.789Z,1004.13
2016-10-19T01:17:30.508Z,1004.10
2016-10-19T01:17:52.245Z,1004.10
2016-10-19T01:18:13.967Z,1003.97
2016-10-19T01:18:35.695Z,1003.94
2016-10-19T01:18:57.410Z,1003.98
2016-10-19T01:19:19.129Z,1003.99
2016-10-19T01:19:40.840Z,1004.04
2016-10-19T01:20:02.570Z,1004.04
2016-10-19T01:20:24.299Z,1004.07
2016-10-19T01:20:46.018Z,1003.88
2016-10-19T01:21:07.733Z,1004.08
2016-10-19T01:21:29.449Z,1004.09
2016-10-19T01:21:51.370Z,1004.06
2016-10-19T01:22:13.083Z,1004.10
2016-10-19T01:22:34.803Z,1004.10
2016-10-19T01:22:56.518Z,1004.04
2016-10-19T01:23:18.239Z,1004.04
2016-10-19T01:23:39.954Z,1003.85
2016-10-19T01:24:01.671Z,1003.87
2016-10-19T01:24:23.389Z,1004.04
2016-10-19T01:24:45.133Z,1003.96
2016-10-19T01:25:06.861Z,1004.00
2016-10-19T01:25:28.575Z,1004.06
2016-10-19T01:25:50.289Z,1004.05
2016-10-19T01:26:12.003Z,1003.94
2016-10-19T01:26:33.722Z,1003.90
2016-10-19T01:26:55.461Z,1003.88
2016-10-19T01:27:17.183Z,1004.08
2016-10-19T01:27:38.910Z,1004.02
2016-10-19T01:28:00.624Z,1004.04
2016-10-19T01:28:22.344Z,1004.05
2016-10-19T01:28:44.061Z,1003.96
2016-10-19T01:29:05.787Z,1004.14
2016-10-19T01:29:27.507Z,1003.97
2016-10-19T01:29:49.221Z,1004.00
2016-10-19T01:30:10.942Z,1003.97
2016-10-19T01:30:32.664Z,1004.07
2016-10-19T01:30:54.388Z,1003.86
2016-10-19T01:31:16.112Z,1003.92
2016-10-19T01:31:37.825Z,1004.00
2016-10-19T01:31:59.543Z,1004.06
2016-10-19T01:32:21.264Z,1003.97
2016-10-19T01:32:42.981Z,1003.87
2016-10-19T01:33:04.695Z,1004.14
2016-10-19T01:33:26.414Z,1004.03
2016-10-19T01:33:48.133Z,1004.06
2016-10-19T01:34:09.864Z,1003.97
2016-10-19T01:34:31.567Z,1003.93
2016-10-19T01:34:53.298Z,1003.83
2016-10-19T01:35:15.018Z,1003.91
2016-10-19T01:35:36.739Z,1003.90
2016-10-19T01:35:58.578Z,1003.96
2016-10-19T01:36:20.297Z,1004.03
2016-10-19T01:36:42.015Z,1004.03
2016-10-19T01:37:03.742Z,1004.02
2016-10-19T01:37:25.463Z,1003.99
2016-10-19T01:37:47.196Z,1004.02
2016-10-19T01:38:08.933Z,1003.94
2016-10-19T01:38:30.662Z,1003.85
2016-10-19T01:38:52.379Z,1004.06
2016-10-19T01:39:14.095Z,1003.98
2016-10-19T01:39:35.815Z,1003.97
2016-10-19T01:39:57.530Z,1004.25
2016-10-19T01:40:19.308Z,1004.02
2016-10-19T01:40:41.033Z,1004.05
2016-10-19T01:41:02.745Z,1003.97
2016-10-19T01:41:24.462Z,1003.87
2016-10-19T01:41:46.181Z,1003.91
2016-10-19T01:42:07.901Z,1003.98
2016-10-19T01:42:29.616Z,1004.02
2016-10-19T01:42:51.341Z,1004.02
2016-10-19T01:43:13.059Z,1004.09
2016-10-19T01:43:34.780Z,1003.97
2016-10-19T01:43:56.501Z,1003.94
2016-10-19T01:44:18.215Z,1003.95
2016-10-19T01:44:39.934Z,1004.09
2016-10-19T01:45:01.655Z,1004.20
2016-10-19T01:45:23.372Z,1004.05
2016-10-19T01:45:45.092Z,1003.97
2016-10-19T01:46:06.808Z,1003.97
2016-10-19T01:46:28.540Z,1003.94
2016-10-19T01:46:50.249Z,1004.14
2016-10-19T01:47:11.974Z,1004.02
2016-10-19T01:47:33.710Z,1003.99
2016-10-19T01:47:55.428Z,1003.97
2016-10-19T01:48:17.146Z,1004.14
2016-10-19T01:48:38.862Z,1003.92
2016-10-19T01:49:00.578Z,1003.93
2016-10-19T01:49:22.297Z,1003.95
2016-10-19T01:49:44.015Z,1003.91
2016-10-19T01:50:05.730Z,1003.97
2016-10-19T01:50:27.447Z,1004.03
2016-10-19T01:50:49.165Z,1004.05
2016-10-19T01:51:10.882Z,1003.78
2016-10-19T01:51:32.606Z,1003.93
2016-10-19T01:51:54.324Z,1003.91
2016-10-19T01:52:16.041Z,1004.01
2016-10-19T01:52:37.761Z,1003.91
2016-10-19T01:52:59.490Z,1003.90
2016-10-19T01:53:21.206Z,1003.76
2016-10-19T01:53:42.928Z,1004.06
2016-10-19T01:54:04.644Z,1003.91
2016-10-19T01:54:26.361Z,1003.91
2016-10-19T01:54:48.085Z,1003.95
2016-10-19T01:55:09.799Z,1003.98
2016-10-19T01:55:31.525Z,1003.89
2016-10-19T01:55:53.254Z,1003.98
2016-10-19T01:56:14.957Z,1003.88
2016-10-19T01:56:36.675Z,1003.96
2016-10-19T01:56:58.396Z,1003.85
2016-10-19T01:57:20.136Z,1003.99
2016-10-19T01:57:41.888Z,1004.06
2016-10-19T01:58:03.619Z,1003.94
2016-10-19T01:58:25.329Z,1003.87
2016-10-19T01:58:47.044Z,1003.97
2016-10-19T01:59:08.771Z,1003.84
2016-10-19T01:59:30.488Z,1003.87
2016-10-19T01:59:52.215Z,1003.95
2016-10-19T02:00:13.937Z,1003.82
2016-10-19T02:00:35.651Z,1003.93
2016-10-19T02:00:57.373Z,1003.99
2016-10-19T02:01:19.089Z,1003.94
2016-10-19T02:01:40.822Z,1003.96
2016-10-19T02:02:02.531Z,1003.88
2016-10-19T02:02:24.249Z,1003.68
2016-10-19T02:02:45.979Z,1003.77
2016-10-19T02:03:07.688Z,1003.89
2016-10-19T02:03:29.410Z,1003.89
2016-10-19T02:03:51.124Z,1003.86
2016-10-19T02:04:12.841Z,1003.73
2016-10-19T02:04:34.562Z,1003.78
2016-10-19T02:04:56.285Z,1003.88
2016-10-19T02:05:18.133Z,1003.80
2016-10-19T02:05:39.850Z,1003.88
2016-10-19T02:06:01.571Z,1003.87
2016-10-19T02:06:23.286Z,1003.84
2016-10-19T02:06:45.001Z,1003.76
2016-10-19T02:07:06.725Z,1003.87
2016-10-19T02:07:28.444Z,1003.69
2016-10-19T02:07:50.154Z,1003.77
2016-10-19T02:08:11.880Z,1003.64
2016-10-19T02:08:33.598Z,1003.95
2016-10-19T02:08:55.318Z,1003.92
2016-10-19T02:09:17.038Z,1003.98
2016-10-19T02:09:38.836Z,1003.71
2016-10-19T02:10:00.555Z,1003.78
2016-10-19T02:10:22.280Z,1003.75
2016-10-19T02:10:44.003Z,1003.73
2016-10-19T02:11:05.733Z,1003.71
2016-10-19T02:11:27.453Z,1003.96
2016-10-19T02:11:49.174Z,1003.78
2016-10-19T02:12:10.894Z,1003.83
2016-10-19T02:12:32.614Z,1003.95
2016-10-19T02:12:54.329Z,1004.05
2016-10-19T02:13:16.050Z,1003.88
2016-10-19T02:13:37.763Z,1003.82
2016-10-19T02:13:59.479Z,1003.79
2016-10-19T02:14:21.212Z,1003.72
2016-10-19T02:14:42.929Z,1003.97
2016-10-19T02:15:04.665Z,1003.97
2016-10-19T02:15:26.387Z,1003.78
2016-10-19T02:15:48.095Z,1003.73
2016-10-19T02:16:09.819Z,1003.69
2016-10-19T02:16:31.534Z,1003.94
2016-10-19T02:16:53.243Z,1003.90
2016-10-19T02:17:14.957Z,1003.72
2016-10-19T02:17:36.672Z,1003.77
2016-10-19T02:17:58.393Z,1003.89
2016-10-19T02:18:20.112Z,1003.98
2016-10-19T02:18:41.825Z,1003.85
2016-10-19T02:19:03.545Z,1003.99
2016-10-19T02:19:25.290Z,1003.84
2016-10-19T02:19:46.990Z,1003.81
2016-10-19T02:20:08.703Z,1003.86
2016-10-19T02:20:30.434Z,1003.80
2016-10-19T02:20:52.156Z,1004.04
2016-10-19T02:21:13.871Z,1004.04
2016-10-19T02:21:35.595Z,1003.88
2016-10-19T02:21:57.306Z,1003.76
2016-10-19T02:22:19.042Z,1003.85
2016-10-19T02:22:40.761Z,1003.88
2016-10-19T02:23:02.488Z,1003.88
2016-10-19T02:23:24.201Z,1003.79
2016-10-19T02:23:45.916Z,1003.78
2016-10-19T02:24:07.633Z,1004.01
2016-10-19T02:24:29.349Z,1003.98
2016-10-19T02:24:51.074Z,1003.82
2016-10-19T02:25:12.797Z,1003.87
2016-10-19T02:25:34.516Z,1003.86
2016-10-19T02:25:56.240Z,1003.86
2016-10-19T02:26:17.959Z,1003.77
2016-10-19T02:26:39.679Z,1003.81
2016-10-19T02:27:01.397Z,1003.87
2016-10-19T02:27:23.115Z,1003.73
2016-10-19T02:27:44.864Z,1003.95
2016-10-19T02:28:11.356Z,1003.81
2016-10-19T02:28:33.080Z,1003.88
2016-10-19T02:28:54.802Z,1003.85
2016-10-19T02:29:16.516Z,1003.96
2016-10-19T02:29:38.233Z,1003.89
2016-10-19T02:29:59.963Z,1003.79
2016-10-19T02:30:21.679Z,1003.85
2016-10-19T02:30:43.405Z,1003.66
2016-10-19T02:31:05.120Z,1003.86
2016-10-19T02:31:26.829Z,1003.75
2016-10-19T02:31:48.558Z,1003.75
2016-10-19T02:32:10.280Z,1003.71
2016-10-19T02:32:31.996Z,1003.82
2016-10-19T02:32:53.712Z,1003.83
2016-10-19T02:33:15.439Z,1003.95
2016-10-19T02:33:37.157Z,1003.85
2016-10-19T02:33:58.877Z,1003.69
2016-10-19T02:34:20.589Z,1003.81
2016-10-19T02:34:42.304Z,1003.61
2016-10-19T02:35:04.034Z,1003.71
2016-10-19T02:35:25.748Z,1003.71
2016-10-19T02:35:47.586Z,1003.77
2016-10-19T02:36:09.320Z,1003.76
2016-10-19T02:36:31.022Z,1003.72
2016-10-19T02:36:52.741Z,1003.69
2016-10-19T02:37:14.462Z,1003.69
2016-10-19T02:37:36.191Z,1003.76
2016-10-19T02:37:57.904Z,1003.80
2016-10-19T02:38:19.631Z,1003.64
2016-10-19T02:38:41.344Z,1003.74
2016-10-19T02:39:03.061Z,1003.74
2016-10-19T02:39:24.798Z,1003.70
2016-10-19T02:39:46.511Z,1003.82
2016-10-19T02:40:08.308Z,1003.83
2016-10-19T02:40:30.025Z,1003.66
2016-10-19T02:40:51.744Z,1003.80
2016-10-19T02:41:13.466Z,1003.74
2016-10-19T02:41:35.195Z,1003.79
2016-10-19T02:41:56.914Z,1003.76
2016-10-19T02:42:18.643Z,1003.65
2016-10-19T02:42:40.359Z,1003.63
2016-10-19T02:43:02.083Z,1003.69
2016-10-19T02:43:23.808Z,1003.79
2016-10-19T02:43:45.534Z,1003.72
2016-10-19T02:44:07.246Z,1003.52
2016-10-19T02:44:28.970Z,1003.83
2016-10-19T02:44:50.685Z,1003.66
2016-10-19T02:45:12.405Z,1003.63
2016-10-19T02:45:34.119Z,1003.74
2016-10-19T02:45:55.834Z,1003.69
2016-10-19T02:46:17.568Z,1003.86
2016-10-19T02:46:39.283Z,1003.73
2016-10-19T02:47:01.004Z,1003.74
2016-10-19T02:47:22.722Z,1003.73
2016-10-19T02:47:44.444Z,1003.75
2016-10-19T02:48:06.160Z,1003.82
2016-10-19T02:48:27.880Z,1003.81
2016-10-19T02:48:49.600Z,1003.59
2016-10-19T02:49:11.317Z,1003.71
2016-10-19T02:49:33.035Z,1003.62
2016-10-19T02:49:54.749Z,1003.73
2016-10-19T02:50:16.466Z,1003.82
2016-10-19T02:50:38.191Z,1003.65
2016-10-19T02:50:59.908Z,1003.66
2016-10-19T02:51:21.625Z,1003.72
2016-10-19T02:51:43.361Z,1003.87
2016-10-19T02:52:05.086Z,1003.58
2016-10-19T02:52:26.800Z,1003.66
2016-10-19T02:52:48.530Z,1003.64
2016-10-19T02:53:10.250Z,1003.68
2016-10-19T02:53:31.965Z,1003.74
2016-10-19T02:53:53.679Z,1003.76
2016-10-19T02:54:15.392Z,1003.60
2016-10-19T02:54:37.110Z,1003.83
2016-10-19T02:54:58.825Z,1003.75
2016-10-19T02:55:20.548Z,1003.66
2016-10-19T02:55:42.272Z,1003.72
2016-10-19T02:56:04.011Z,1003.77
2016-10-19T02:56:25.722Z,1003.65
2016-10-19T02:56:47.443Z,1003.66
2016-10-19T02:57:09.156Z,1003.60
2016-10-19T02:57:30.874Z,1003.58
2016-10-19T02:57:52.601Z,1003.68
2016-10-19T02:58:14.327Z,1003.70
2016-10-19T02:58:36.043Z,1003.65
2016-10-19T02:58:57.764Z,1003.73
2016-10-19T02:59:19.488Z,1003.72
2016-10-19T02:59:41.203Z,1003.71
2016-10-19T03:00:02.922Z,1003.45
2016-10-19T03:00:24.658Z,1003.75
2016-10-19T03:00:46.375Z,1003.71
2016-10-19T03:01:08.094Z,1003.58
2016-10-19T03:01:29.819Z,1003.71
2016-10-19T03:01:51.547Z,1003.53
2016-10-19T03:02:13.272Z,1003.61
2016-10-19T03:02:34.998Z,1003.68
2016-10-19T03:02:56.719Z,1003.51
2016-10-19T03:03:18.435Z,1003.73
2016-10-19T03:03:40.155Z,1003.66
2016-10-19T03:04:01.872Z,1003.57
2016-10-19T03:04:23.598Z,1003.63
2016-10-19T03:04:45.312Z,1003.50
2016-10-19T03:05:07.122Z,1003.80
2016-10-19T03:05:28.837Z,1003.74
2016-10-19T03:05:50.553Z,1003.85
2016-10-19T03:06:12.287Z,1003.53
2016-10-19T03:06:34.004Z,1003.68
2016-10-19T03:06:55.730Z,1003.75
2016-10-19T03:07:17.455Z,1003.72
2016-10-19T03:07:39.171Z,1003.52
2016-10-19T03:08:00.888Z,1003.65
2016-10-19T03:08:22.609Z,1003.59
2016-10-19T03:08:44.326Z,1003.52
2016-10-19T03:09:06.044Z,1003.77
2016-10-19T03:09:27.763Z,1003.70
2016-10-19T03:09:49.477Z,1003.58
2016-10-19T03:10:11.224Z,1003.66
2016-10-19T03:10:32.933Z,1003.69
2016-10-19T03:10:54.652Z,1003.70
2016-10-19T03:11:16.373Z,1003.59
2016-10-19T03:11:38.091Z,1003.75
2016-10-19T03:11:59.815Z,1003.75
2016-10-19T03:12:21.535Z,1003.55
2016-10-19T03:12:43.251Z,1003.82
2016-10-19T03:13:04.972Z,1003.72
2016-10-19T03:13:26.687Z,1003.59
2016-10-19T03:13:48.418Z,1003.50
2016-10-19T03:14:10.138Z,1003.44
2016-10-19T03:14:31.875Z,1003.61
2016-10-19T03:14:53.599Z,1003.59
2016-10-19T03:15:15.317Z,1003.53
2016-10-19T03:15:37.051Z,1003.73
2016-10-19T03:15:58.771Z,1003.79
2016-10-19T03:16:20.495Z,1003.71
2016-10-19T03:16:42.213Z,1003.71
2016-10-19T03:17:03.925Z,1003.66
2016-10-19T03:17:25.639Z,1003.69
2016-10-19T03:17:47.364Z,1003.52
2016-10-19T03:18:09.077Z,1003.59
2016-10-19T03:18:30.799Z,1003.58
2016-10-19T03:18:52.515Z,1003.68
2016-10-19T03:19:14.230Z,1003.50
2016-10-19T03:19:35.948Z,1003.64
2016-10-19T03:19:57.663Z,1003.64
2016-10-19T03:20:19.391Z,1003.61
2016-10-19T03:20:41.100Z,1003.53
2016-10-19T03:21:02.818Z,1003.65
2016-10-19T03:21:24.539Z,1003.67
2016-10-19T03:21:46.258Z,1003.62
2016-10-19T03:22:07.973Z,1003.51
2016-10-19T03:22:29.694Z,1003.63
2016-10-19T03:22:51.423Z,1003.70
2016-10-19T03:23:13.180Z,1003.63
2016-10-19T03:23:34.900Z,1003.75
2016-10-19T03:23:56.622Z,1003.68
2016-10-19T03:24:18.345Z,1003.63
2016-10-19T03:24:40.051Z,1003.69
2016-10-19T03:25:01.774Z,1003.56
2016-10-19T03:25:23.513Z,1003.55
2016-10-19T03:25:45.229Z,1003.66
2016-10-19T03:26:06.946Z,1003.75
2016-10-19T03:26:28.666Z,1003.75
2016-10-19T03:26:50.379Z,1003.72
2016-10-19T03:27:12.106Z,1003.61
2016-10-19T03:27:33.824Z,1003.53
2016-10-19T03:27:55.556Z,1003.77
2016-10-19T03:28:17.274Z,1003.56
2016-10-19T03:28:39.001Z,1003.55
2016-10-19T03:29:00.722Z,1003.62
2016-10-19T03:29:22.451Z,1003.75
2016-10-19T03:29:44.183Z,1003.61
2016-10-19T03:30:05.901Z,1003.81
2016-10-19T03:30:27.622Z,1003.73
2016-10-19T03:30:49.339Z,1003.80
2016-10-19T03:31:11.062Z,1003.72
2016-10-19T03:31:32.802Z,1003.65
2016-10-19T03:31:54.522Z,1003.80
2016-10-19T03:32:16.238Z,1003.78
2016-10-19T03:32:37.955Z,1003.65
2016-10-19T03:32:59.686Z,1003.65
2016-10-19T03:33:21.402Z,1003.74
2016-10-19T03:33:43.122Z,1003.70
2016-10-19T03:34:04.883Z,1003.84
2016-10-19T03:34:26.732Z,1003.72
2016-10-19T03:34:48.449Z,1003.90
2016-10-19T03:35:10.185Z,1003.84
2016-10-19T03:35:31.904Z,1003.86
2016-10-19T03:35:53.620Z,1003.84
2016-10-19T03:36:15.341Z,1003.98
2016-10-19T03:36:37.060Z,1004.01
2016-10-19T03:36:58.783Z,1003.80
2016-10-19T03:37:20.501Z,1003.85
2016-10-19T03:37:42.218Z,1003.62
2016-10-19T03:38:03.929Z,1003.98
2016-10-19T03:38:25.650Z,1004.01
2016-10-19T03:38:47.396Z,1003.60
2016-10-19T03:39:09.118Z,1003.57
2016-10-19T03:39:30.835Z,1003.88
2016-10-19T03:39:52.550Z,1003.82
2016-10-19T03:40:14.281Z,1003.63
2016-10-19T03:40:35.995Z,1003.80
2016-10-19T03:40:57.715Z,1003.88
2016-10-19T03:41:19.444Z,1003.87
2016-10-19T03:41:41.170Z,1003.89
2016-10-19T03:42:02.891Z,1003.70
2016-10-19T03:42:24.607Z,1003.63
2016-10-19T03:42:46.325Z,1003.82
2016-10-19T03:43:08.039Z,1003.77
2016-10-19T03:43:29.756Z,1003.55
2016-10-19T03:43:51.468Z,1003.49
2016-10-19T03:44:13.193Z,1003.69
2016-10-19T03:44:34.911Z,1003.69
2016-10-19T03:44:56.627Z,1003.65
2016-10-19T03:45:18.356Z,1003.77
2016-10-19T03:45:40.073Z,1003.67
2016-10-19T03:46:01.785Z,1003.75
2016-10-19T03:46:23.517Z,1003.72
2016-10-19T03:46:45.242Z,1003.92
2016-10-19T03:47:06.975Z,1003.91
2016-10-19T03:47:28.686Z,1003.76
2016-10-19T03:47:50.400Z,1003.85
2016-10-19T03:48:12.120Z,1003.94
2016-10-19T03:48:33.845Z,1003.86
2016-10-19T03:48:55.563Z,1003.75
2016-10-19T03:49:17.303Z,1003.91
2016-10-19T03:49:39.027Z,1004.00
2016-10-19T03:50:00.748Z,1003.92
2016-10-19T03:50:22.480Z,1003.93
2016-10-19T03:50:44.197Z,1003.92
2016-10-19T03:51:05.913Z,1003.96
2016-10-19T03:51:27.632Z,1003.89
2016-10-19T03:51:49.351Z,1003.96
2016-10-19T03:52:11.077Z,1003.97
2016-10-19T03:52:32.788Z,1003.97
2016-10-19T03:52:54.505Z,1003.94
2016-10-19T03:53:16.223Z,1004.03
2016-10-19T03:53:37.942Z,1003.88
2016-10-19T03:53:59.661Z,1004.02
2016-10-19T03:54:21.382Z,1004.12
2016-10-19T03:54:43.118Z,1004.04
2016-10-19T03:55:04.838Z,1004.03
2016-10-19T03:55:26.554Z,1004.02
2016-10-19T03:55:48.268Z,1004.12
2016-10-19T03:56:09.986Z,1004.09
2016-10-19T03:56:31.706Z,1003.90
2016-10-19T03:56:53.429Z,1004.08
2016-10-19T03:57:15.145Z,1004.06
2016-10-19T03:57:36.862Z,1004.08
2016-10-19T03:57:58.578Z,1003.96
2016-10-19T03:58:20.303Z,1003.98
2016-10-19T03:58:42.019Z,1003.88
2016-10-19T03:59:03.735Z,1003.80
2016-10-19T03:59:25.455Z,1003.89
2016-10-19T03:59:47.183Z,1003.97
2016-10-19T04:00:08.907Z,1004.06
2016-10-19T04:00:30.623Z,1004.00
2016-10-19T04:00:52.351Z,1003.79
2016-10-19T04:01:14.067Z,1004.01
2016-10-19T04:01:35.783Z,1004.01
2016-10-19T04:01:57.510Z,1003.87
2016-10-19T04:02:19.237Z,1003.88
2016-10-19T04:02:40.951Z,1003.83
2016-10-19T04:03:02.682Z,1004.06
2016-10-19T04:03:24.394Z,1004.24
2016-10-19T04:03:46.113Z,1003.93
2016-10-19T04:04:07.829Z,1004.00
2016-10-19T04:04:29.554Z,1003.95
2016-10-19T04:04:51.273Z,1004.03
2016-10-19T04:05:12.994Z,1003.98
2016-10-19T04:05:34.710Z,1003.92
2016-10-19T04:05:56.441Z,1003.85
2016-10-19T04:06:18.157Z,1004.05
2016-10-19T04:06:39.867Z,1003.93
2016-10-19T04:07:01.582Z,1003.85
2016-10-19T04:07:23.304Z,1003.75
2016-10-19T04:07:45.031Z,1003.83
2016-10-19T04:08:06.753Z,1003.92
2016-10-19T04:08:28.472Z,1003.88
2016-10-19T04:08:50.188Z,1003.91
2016-10-19T04:09:11.905Z,1003.85
2016-10-19T04:09:33.624Z,1004.11
2016-10-19T04:09:55.341Z,1003.86
2016-10-19T04:10:17.053Z,1003.93
2016-10-19T04:10:38.789Z,1003.83
2016-10-19T04:11:00.504Z,1004.05
2016-10-19T04:11:22.234Z,1004.08
2016-10-19T04:11:43.958Z,1004.01
2016-10-19T04:12:05.684Z,1004.00
2016-10-19T04:12:27.411Z,1003.99
2016-10-19T04:12:49.190Z,1003.96
2016-10-19T04:13:10.913Z,1003.77
2016-10-19T04:13:32.627Z,1003.75
2016-10-19T04:13:54.357Z,1003.99
2016-10-19T04:14:16.087Z,1003.97
2016-10-19T04:14:37.806Z,1003.98
2016-10-19T04:14:59.539Z,1003.84
2016-10-19T04:15:21.264Z,1003.95
2016-10-19T04:15:42.979Z,1004.02
2016-10-19T04:16:04.708Z,1003.93
2016-10-19T04:16:26.416Z,1003.90
2016-10-19T04:16:48.138Z,1003.95
2016-10-19T04:17:09.879Z,1004.14
2016-10-19T04:17:31.607Z,1003.89
2016-10-19T04:17:53.323Z,1003.85
2016-10-19T04:18:15.039Z,1003.83
2016-10-19T04:18:39.168Z,1004.00
2016-10-19T04:19:00.906Z,1004.04
2016-10-19T04:19:22.632Z,1004.07
2016-10-19T04:19:44.347Z,1004.04
2016-10-19T04:20:06.067Z,1003.83
2016-10-19T04:20:27.802Z,1003.81
2016-10-19T04:20:49.519Z,1004.02
2016-10-19T04:21:11.255Z,1004.03
2016-10-19T04:21:32.975Z,1004.12
2016-10-19T04:21:54.690Z,1003.93
2016-10-19T04:22:16.402Z,1003.93
2016-10-19T04:22:38.118Z,1003.97
2016-10-19T04:22:59.834Z,1004.02